sensor_id;sensor_type;location;lat;lon;timestamp;P1;durP1;ratioP1;P2;durP2;ratioP2
37323;SDS011;23205;49.986;18.950;2022-11-20T00:04:04;294.13;;;113.30;;
37323;SDS011;23205;49.986;18.950;2022-11-20T00:09:05;282.73;;;111.32;;
37323;SDS011;23205;49.986;18.950;2022-11-20T00:14:06;275.90;;;113.95;;
37323;SDS011;23205;49.986;18.950;2022-11-20T00:19:07;281.10;;;115.38;;
37323;SDS011;23205;49.986;18.950;2022-11-20T00:24:09;295.80;;;115.03;;
37323;SDS011;23205;49.986;18.950;2022-11-20T00:29:11;293.77;;;111.93;;
37323;SDS011;23205;49.986;18.950;2022-11-20T00:34:12;285.92;;;113.40;;
37323;SDS011;23205;49.986;18.950;2022-11-20T00:39:13;279.13;;;109.78;;
37323;SDS011;23205;49.986;18.950;2022-11-20T00:44:14;289.20;;;109.07;;
37323;SDS011;23205;49.986;18.950;2022-11-20T00:49:15;290.13;;;109.97;;
37323;SDS011;23205;49.986;18.950;2022-11-20T00:54:16;269.73;;;103.85;;
37323;SDS011;23205;49.986;18.950;2022-11-20T00:59:17;281.88;;;108.93;;
37323;SDS011;23205;49.986;18.950;2022-11-20T01:04:19;291.63;;;112.60;;
37323;SDS011;23205;49.986;18.950;2022-11-20T01:09:20;288.17;;;112.85;;
37323;SDS011;23205;49.986;18.950;2022-11-20T01:14:21;280.90;;;106.53;;
37323;SDS011;23205;49.986;18.950;2022-11-20T01:19:22;274.13;;;108.13;;
37323;SDS011;23205;49.986;18.950;2022-11-20T01:24:24;283.67;;;111.15;;
37323;SDS011;23205;49.986;18.950;2022-11-20T01:29:25;282.48;;;110.25;;
37323;SDS011;23205;49.986;18.950;2022-11-20T01:34:26;270.02;;;103.00;;
37323;SDS011;23205;49.986;18.950;2022-11-20T01:39:27;255.88;;;101.28;;
37323;SDS011;23205;49.986;18.950;2022-11-20T01:44:48;277.98;;;106.10;;
37323;SDS011;23205;49.986;18.950;2022-11-20T01:49:50;228.88;;;92.85;;
37323;SDS011;23205;49.986;18.950;2022-11-20T01:54:58;230.25;;;87.53;;
37323;SDS011;23205;49.986;18.950;2022-11-20T02:00:03;222.70;;;88.28;;
37323;SDS011;23205;49.986;18.950;2022-11-20T02:05:16;240.25;;;92.80;;
37323;SDS011;23205;49.986;18.950;2022-11-20T02:10:19;237.45;;;90.93;;
37323;SDS011;23205;49.986;18.950;2022-11-20T02:15:20;243.35;;;93.55;;
37323;SDS011;23205;49.986;18.950;2022-11-20T02:20:21;237.73;;;89.38;;
37323;SDS011;23205;49.986;18.950;2022-11-20T02:25:22;221.30;;;88.72;;
37323;SDS011;23205;49.986;18.950;2022-11-20T02:30:24;230.35;;;90.25;;
37323;SDS011;23205;49.986;18.950;2022-11-20T02:40:26;236.55;;;92.07;;
37323;SDS011;23205;49.986;18.950;2022-11-20T02:45:28;232.65;;;90.20;;
37323;SDS011;23205;49.986;18.950;2022-11-20T02:50:29;233.90;;;89.60;;
37323;SDS011;23205;49.986;18.950;2022-11-20T02:55:31;234.77;;;88.28;;
37323;SDS011;23205;49.986;18.950;2022-11-20T03:00:32;226.98;;;84.75;;
37323;SDS011;23205;49.986;18.950;2022-11-20T03:05:33;213.38;;;82.13;;
37323;SDS011;23205;49.986;18.950;2022-11-20T03:10:34;217.82;;;85.82;;
37323;SDS011;23205;49.986;18.950;2022-11-20T03:15:36;219.65;;;81.90;;
37323;SDS011;23205;49.986;18.950;2022-11-20T03:20:37;210.57;;;84.72;;
37323;SDS011;23205;49.986;18.950;2022-11-20T03:25:38;203.85;;;85.32;;
37323;SDS011;23205;49.986;18.950;2022-11-20T03:30:39;221.00;;;85.03;;
37323;SDS011;23205;49.986;18.950;2022-11-20T03:35:41;201.95;;;78.10;;
37323;SDS011;23205;49.986;18.950;2022-11-20T03:40:42;208.25;;;83.15;;
37323;SDS011;23205;49.986;18.950;2022-11-20T03:45:43;215.07;;;87.68;;
37323;SDS011;23205;49.986;18.950;2022-11-20T03:50:44;222.88;;;88.53;;
37323;SDS011;23205;49.986;18.950;2022-11-20T03:55:51;215.48;;;86.22;;
37323;SDS011;23205;49.986;18.950;2022-11-20T04:00:52;238.25;;;91.28;;
37323;SDS011;23205;49.986;18.950;2022-11-20T04:05:53;220.25;;;89.13;;
37323;SDS011;23205;49.986;18.950;2022-11-20T04:10:54;220.43;;;91.90;;
37323;SDS011;23205;49.986;18.950;2022-11-20T04:15:57;240.25;;;91.50;;
37323;SDS011;23205;49.986;18.950;2022-11-20T04:20:58;233.00;;;90.15;;
37323;SDS011;23205;49.986;18.950;2022-11-20T04:26:03;223.75;;;92.13;;
37323;SDS011;23205;49.986;18.950;2022-11-20T04:36:12;208.50;;;86.93;;
37323;SDS011;23205;49.986;18.950;2022-11-20T04:41:16;232.02;;;95.15;;
37323;SDS011;23205;49.986;18.950;2022-11-20T04:46:18;242.43;;;91.35;;
37323;SDS011;23205;49.986;18.950;2022-11-20T04:51:19;227.85;;;91.68;;
37323;SDS011;23205;49.986;18.950;2022-11-20T04:56:21;214.23;;;89.95;;
37323;SDS011;23205;49.986;18.950;2022-11-20T05:01:23;232.13;;;93.78;;
37323;SDS011;23205;49.986;18.950;2022-11-20T05:06:25;220.15;;;89.72;;
37323;SDS011;23205;49.986;18.950;2022-11-20T05:11:26;239.02;;;94.50;;
37323;SDS011;23205;49.986;18.950;2022-11-20T05:16:29;268.23;;;105.93;;
37323;SDS011;23205;49.986;18.950;2022-11-20T05:21:30;286.98;;;112.15;;
37323;SDS011;23205;49.986;18.950;2022-11-20T05:26:32;288.60;;;112.50;;
37323;SDS011;23205;49.986;18.950;2022-11-20T05:31:33;257.95;;;103.15;;
37323;SDS011;23205;49.986;18.950;2022-11-20T05:36:36;241.38;;;97.05;;
37323;SDS011;23205;49.986;18.950;2022-11-20T05:41:37;254.88;;;101.43;;
37323;SDS011;23205;49.986;18.950;2022-11-20T05:46:38;265.00;;;100.80;;
37323;SDS011;23205;49.986;18.950;2022-11-20T05:51:39;355.55;;;127.95;;
37323;SDS011;23205;49.986;18.950;2022-11-20T05:56:41;318.42;;;118.60;;
37323;SDS011;23205;49.986;18.950;2022-11-20T06:01:43;292.02;;;109.45;;
37323;SDS011;23205;49.986;18.950;2022-11-20T06:06:44;270.58;;;108.03;;
37323;SDS011;23205;49.986;18.950;2022-11-20T06:11:45;272.95;;;108.55;;
37323;SDS011;23205;49.986;18.950;2022-11-20T06:16:46;294.38;;;114.90;;
37323;SDS011;23205;49.986;18.950;2022-11-20T06:21:48;280.52;;;111.43;;
37323;SDS011;23205;49.986;18.950;2022-11-20T06:26:50;314.63;;;123.55;;
37323;SDS011;23205;49.986;18.950;2022-11-20T06:31:51;325.27;;;132.85;;
37323;SDS011;23205;49.986;18.950;2022-11-20T06:36:52;318.33;;;130.20;;
37323;SDS011;23205;49.986;18.950;2022-11-20T06:41:53;286.98;;;124.28;;
37323;SDS011;23205;49.986;18.950;2022-11-20T06:46:54;309.92;;;127.95;;
37323;SDS011;23205;49.986;18.950;2022-11-20T06:51:55;283.23;;;121.80;;
37323;SDS011;23205;49.986;18.950;2022-11-20T06:56:56;298.83;;;127.68;;
37323;SDS011;23205;49.986;18.950;2022-11-20T07:01:57;324.80;;;134.50;;
37323;SDS011;23205;49.986;18.950;2022-11-20T07:06:58;368.90;;;163.05;;
37323;SDS011;23205;49.986;18.950;2022-11-20T07:12:00;386.52;;;180.73;;
37323;SDS011;23205;49.986;18.950;2022-11-20T07:17:01;354.08;;;150.10;;
37323;SDS011;23205;49.986;18.950;2022-11-20T07:22:02;306.27;;;131.18;;
37323;SDS011;23205;49.986;18.950;2022-11-20T07:27:03;323.77;;;135.77;;
37323;SDS011;23205;49.986;18.950;2022-11-20T07:32:05;338.63;;;135.43;;
37323;SDS011;23205;49.986;18.950;2022-11-20T07:37:06;334.52;;;141.55;;
37323;SDS011;23205;49.986;18.950;2022-11-20T07:42:07;375.08;;;159.18;;
37323;SDS011;23205;49.986;18.950;2022-11-20T07:47:11;324.02;;;134.60;;
37323;SDS011;23205;49.986;18.950;2022-11-20T07:52:12;289.08;;;124.57;;
37323;SDS011;23205;49.986;18.950;2022-11-20T07:57:13;258.92;;;114.25;;
37323;SDS011;23205;49.986;18.950;2022-11-20T08:02:14;287.73;;;122.75;;
37323;SDS011;23205;49.986;18.950;2022-11-20T08:07:15;311.63;;;129.57;;
37323;SDS011;23205;49.986;18.950;2022-11-20T08:12:18;320.63;;;132.02;;
37323;SDS011;23205;49.986;18.950;2022-11-20T08:17:38;318.40;;;130.15;;
37323;SDS011;23205;49.986;18.950;2022-11-20T08:22:40;305.63;;;128.07;;
37323;SDS011;23205;49.986;18.950;2022-11-20T08:27:41;336.30;;;137.23;;
37323;SDS011;23205;49.986;18.950;2022-11-20T08:32:42;334.45;;;134.73;;
37323;SDS011;23205;49.986;18.950;2022-11-20T08:37:45;352.65;;;143.23;;
37323;SDS011;23205;49.986;18.950;2022-11-20T08:42:47;327.90;;;137.07;;
37323;SDS011;23205;49.986;18.950;2022-11-20T08:47:49;326.35;;;139.05;;
37323;SDS011;23205;49.986;18.950;2022-11-20T08:52:53;318.35;;;132.23;;
37323;SDS011;23205;49.986;18.950;2022-11-20T08:57:54;349.90;;;146.98;;
37323;SDS011;23205;49.986;18.950;2022-11-20T09:02:55;310.27;;;125.70;;
37323;SDS011;23205;49.986;18.950;2022-11-20T09:07:58;307.55;;;133.20;;
37323;SDS011;23205;49.986;18.950;2022-11-20T09:12:59;299.98;;;123.10;;
37323;SDS011;23205;49.986;18.950;2022-11-20T09:18:02;265.80;;;116.50;;
37323;SDS011;23205;49.986;18.950;2022-11-20T09:23:05;273.70;;;118.47;;
37323;SDS011;23205;49.986;18.950;2022-11-20T09:28:06;289.42;;;121.85;;
37323;SDS011;23205;49.986;18.950;2022-11-20T09:33:07;242.35;;;104.82;;
37323;SDS011;23205;49.986;18.950;2022-11-20T09:38:08;206.98;;;89.25;;
37323;SDS011;23205;49.986;18.950;2022-11-20T09:43:15;284.30;;;119.85;;
37323;SDS011;23205;49.986;18.950;2022-11-20T09:58:40;318.45;;;134.15;;
37323;SDS011;23205;49.986;18.950;2022-11-20T10:03:49;280.23;;;119.72;;
37323;SDS011;23205;49.986;18.950;2022-11-20T10:08:56;221.93;;;102.22;;
37323;SDS011;23205;49.986;18.950;2022-11-20T10:29:11;227.20;;;97.00;;
37323;SDS011;23205;49.986;18.950;2022-11-20T10:34:19;200.40;;;87.00;;
37323;SDS011;23205;49.986;18.950;2022-11-20T10:39:24;205.45;;;94.88;;
37323;SDS011;23205;49.986;18.950;2022-11-20T10:44:27;178.48;;;78.53;;
37323;SDS011;23205;49.986;18.950;2022-11-20T10:49:49;166.40;;;77.05;;
37323;SDS011;23205;49.986;18.950;2022-11-20T11:00:24;141.30;;;61.15;;
37323;SDS011;23205;49.986;18.950;2022-11-20T11:11:12;137.43;;;58.38;;
37323;SDS011;23205;49.986;18.950;2022-11-20T11:15:54;133.18;;;57.80;;
37323;SDS011;23205;49.986;18.950;2022-11-20T11:20:56;133.77;;;54.50;;
37323;SDS011;23205;49.986;18.950;2022-11-20T11:25:58;126.05;;;49.03;;
37323;SDS011;23205;49.986;18.950;2022-11-20T11:31:00;117.00;;;52.67;;
37323;SDS011;23205;49.986;18.950;2022-11-20T11:36:02;109.80;;;51.42;;
37323;SDS011;23205;49.986;18.950;2022-11-20T11:41:05;106.75;;;51.67;;
37323;SDS011;23205;49.986;18.950;2022-11-20T11:51:20;115.88;;;52.58;;
37323;SDS011;23205;49.986;18.950;2022-11-20T11:56:22;122.60;;;53.72;;
37323;SDS011;23205;49.986;18.950;2022-11-20T12:06:31;132.52;;;58.30;;
37323;SDS011;23205;49.986;18.950;2022-11-20T12:11:43;123.10;;;54.35;;
37323;SDS011;23205;49.986;18.950;2022-11-20T12:16:46;119.65;;;51.08;;
37323;SDS011;23205;49.986;18.950;2022-11-20T12:52:51;92.63;;;49.38;;
37323;SDS011;23205;49.986;18.950;2022-11-20T12:58:08;73.78;;;39.63;;
37323;SDS011;23205;49.986;18.950;2022-11-20T13:08:35;69.68;;;35.67;;
37323;SDS011;23205;49.986;18.950;2022-11-20T13:18:53;72.45;;;36.50;;
37323;SDS011;23205;49.986;18.950;2022-11-20T13:24:03;75.28;;;37.55;;
37323;SDS011;23205;49.986;18.950;2022-11-20T13:29:08;87.77;;;46.23;;
37323;SDS011;23205;49.986;18.950;2022-11-20T13:34:12;71.60;;;36.92;;
37323;SDS011;23205;49.986;18.950;2022-11-20T13:39:23;81.68;;;41.55;;
37323;SDS011;23205;49.986;18.950;2022-11-20T13:49:33;77.57;;;37.33;;
37323;SDS011;23205;49.986;18.950;2022-11-20T14:04:59;78.30;;;37.42;;
37323;SDS011;23205;49.986;18.950;2022-11-20T14:10:01;85.53;;;40.72;;
37323;SDS011;23205;49.986;18.950;2022-11-20T14:15:03;87.20;;;40.05;;
37323;SDS011;23205;49.986;18.950;2022-11-20T14:20:05;99.53;;;43.85;;
37323;SDS011;23205;49.986;18.950;2022-11-20T14:30:15;135.07;;;58.28;;
37323;SDS011;23205;49.986;18.950;2022-11-20T14:35:25;141.55;;;62.08;;
37323;SDS011;23205;49.986;18.950;2022-11-20T14:45:28;163.57;;;69.75;;
37323;SDS011;23205;49.986;18.950;2022-11-20T14:50:30;164.70;;;75.20;;
37323;SDS011;23205;49.986;18.950;2022-11-20T14:55:32;180.90;;;79.70;;
37323;SDS011;23205;49.986;18.950;2022-11-20T15:00:34;174.70;;;76.93;;
37323;SDS011;23205;49.986;18.950;2022-11-20T15:05:46;175.80;;;81.82;;
37323;SDS011;23205;49.986;18.950;2022-11-20T15:10:50;199.27;;;81.95;;
37323;SDS011;23205;49.986;18.950;2022-11-20T15:15:53;191.40;;;84.72;;
37323;SDS011;23205;49.986;18.950;2022-11-20T15:20:58;182.40;;;83.50;;
37323;SDS011;23205;49.986;18.950;2022-11-20T15:26:01;192.98;;;84.93;;
37323;SDS011;23205;49.986;18.950;2022-11-20T15:31:05;260.10;;;102.95;;
37323;SDS011;23205;49.986;18.950;2022-11-20T15:36:06;334.92;;;122.60;;
37323;SDS011;23205;49.986;18.950;2022-11-20T15:41:07;203.40;;;88.78;;
37323;SDS011;23205;49.986;18.950;2022-11-20T15:46:09;210.13;;;94.18;;
37323;SDS011;23205;49.986;18.950;2022-11-20T15:51:17;219.75;;;96.13;;
37323;SDS011;23205;49.986;18.950;2022-11-20T15:56:20;224.15;;;95.57;;
37323;SDS011;23205;49.986;18.950;2022-11-20T16:01:21;248.70;;;101.90;;
37323;SDS011;23205;49.986;18.950;2022-11-20T16:06:23;257.45;;;109.05;;
37323;SDS011;23205;49.986;18.950;2022-11-20T16:11:24;286.85;;;114.22;;
37323;SDS011;23205;49.986;18.950;2022-11-20T16:16:27;231.75;;;93.07;;
37323;SDS011;23205;49.986;18.950;2022-11-20T16:21:30;193.73;;;78.22;;
37323;SDS011;23205;49.986;18.950;2022-11-20T16:26:31;130.68;;;55.53;;
37323;SDS011;23205;49.986;18.950;2022-11-20T16:31:33;130.18;;;55.10;;
37323;SDS011;23205;49.986;18.950;2022-11-20T16:36:35;124.97;;;52.10;;
37323;SDS011;23205;49.986;18.950;2022-11-20T16:41:37;112.43;;;46.85;;
37323;SDS011;23205;49.986;18.950;2022-11-20T16:46:38;93.50;;;41.30;;
37323;SDS011;23205;49.986;18.950;2022-11-20T16:51:40;105.88;;;42.25;;
37323;SDS011;23205;49.986;18.950;2022-11-20T16:56:41;112.13;;;46.45;;
37323;SDS011;23205;49.986;18.950;2022-11-20T17:01:43;96.95;;;40.22;;
37323;SDS011;23205;49.986;18.950;2022-11-20T17:06:44;99.25;;;42.88;;
37323;SDS011;23205;49.986;18.950;2022-11-20T17:11:46;90.93;;;36.10;;
37323;SDS011;23205;49.986;18.950;2022-11-20T17:16:48;97.43;;;41.35;;
37323;SDS011;23205;49.986;18.950;2022-11-20T17:21:49;93.88;;;38.55;;
37323;SDS011;23205;49.986;18.950;2022-11-20T17:26:50;84.25;;;34.20;;
37323;SDS011;23205;49.986;18.950;2022-11-20T17:31:52;76.75;;;31.20;;
37323;SDS011;23205;49.986;18.950;2022-11-20T17:36:54;77.70;;;31.60;;
37323;SDS011;23205;49.986;18.950;2022-11-20T17:41:55;74.95;;;30.85;;
37323;SDS011;23205;49.986;18.950;2022-11-20T17:47:18;70.47;;;27.80;;
37323;SDS011;23205;49.986;18.950;2022-11-20T17:52:20;71.68;;;28.33;;
37323;SDS011;23205;49.986;18.950;2022-11-20T17:57:23;67.75;;;28.33;;
37323;SDS011;23205;49.986;18.950;2022-11-20T18:02:44;72.88;;;29.63;;
37323;SDS011;23205;49.986;18.950;2022-11-20T18:07:46;70.43;;;28.40;;
37323;SDS011;23205;49.986;18.950;2022-11-20T18:12:47;69.43;;;28.75;;
37323;SDS011;23205;49.986;18.950;2022-11-20T18:17:48;74.97;;;30.05;;
37323;SDS011;23205;49.986;18.950;2022-11-20T18:22:49;74.78;;;31.98;;
37323;SDS011;23205;49.986;18.950;2022-11-20T18:27:50;74.47;;;30.35;;
37323;SDS011;23205;49.986;18.950;2022-11-20T18:32:52;71.70;;;28.92;;
37323;SDS011;23205;49.986;18.950;2022-11-20T18:37:53;73.47;;;29.70;;
37323;SDS011;23205;49.986;18.950;2022-11-20T18:42:54;76.68;;;29.77;;
37323;SDS011;23205;49.986;18.950;2022-11-20T18:48:14;77.13;;;29.75;;
37323;SDS011;23205;49.986;18.950;2022-11-20T18:53:15;73.60;;;29.38;;
37323;SDS011;23205;49.986;18.950;2022-11-20T18:58:16;70.50;;;26.75;;
37323;SDS011;23205;49.986;18.950;2022-11-20T19:03:18;72.13;;;27.23;;
37323;SDS011;23205;49.986;18.950;2022-11-20T19:08:19;73.32;;;29.80;;
37323;SDS011;23205;49.986;18.950;2022-11-20T19:13:20;69.90;;;29.40;;
37323;SDS011;23205;49.986;18.950;2022-11-20T19:18:21;77.97;;;30.98;;
37323;SDS011;23205;49.986;18.950;2022-11-20T19:23:22;70.18;;;27.98;;
37323;SDS011;23205;49.986;18.950;2022-11-20T19:28:23;79.18;;;30.92;;
37323;SDS011;23205;49.986;18.950;2022-11-20T19:33:24;95.20;;;38.00;;
37323;SDS011;23205;49.986;18.950;2022-11-20T19:38:26;97.03;;;37.22;;
37323;SDS011;23205;49.986;18.950;2022-11-20T19:43:27;97.95;;;39.45;;
37323;SDS011;23205;49.986;18.950;2022-11-20T19:48:35;95.60;;;38.88;;
37323;SDS011;23205;49.986;18.950;2022-11-20T19:53:36;112.30;;;43.10;;
37323;SDS011;23205;49.986;18.950;2022-11-20T19:58:38;103.55;;;43.50;;
37323;SDS011;23205;49.986;18.950;2022-11-20T20:03:39;97.45;;;38.97;;
37323;SDS011;23205;49.986;18.950;2022-11-20T20:08:41;95.40;;;40.58;;
37323;SDS011;23205;49.986;18.950;2022-11-20T20:13:42;112.40;;;46.10;;
37323;SDS011;23205;49.986;18.950;2022-11-20T20:18:44;114.07;;;46.20;;
37323;SDS011;23205;49.986;18.950;2022-11-20T20:23:45;110.32;;;46.42;;
37323;SDS011;23205;49.986;18.950;2022-11-20T20:28:50;111.40;;;45.13;;
37323;SDS011;23205;49.986;18.950;2022-11-20T20:33:51;106.68;;;40.90;;
37323;SDS011;23205;49.986;18.950;2022-11-20T20:38:53;106.60;;;43.40;;
37323;SDS011;23205;49.986;18.950;2022-11-20T20:43:54;107.97;;;42.67;;
37323;SDS011;23205;49.986;18.950;2022-11-20T20:49:14;119.68;;;51.03;;
37323;SDS011;23205;49.986;18.950;2022-11-20T20:54:15;120.25;;;49.85;;
37323;SDS011;23205;49.986;18.950;2022-11-20T20:59:16;114.82;;;49.13;;
37323;SDS011;23205;49.986;18.950;2022-11-20T21:04:17;139.70;;;51.97;;
37323;SDS011;23205;49.986;18.950;2022-11-20T21:09:18;148.95;;;57.97;;
37323;SDS011;23205;49.986;18.950;2022-11-20T21:14:20;148.05;;;58.20;;
37323;SDS011;23205;49.986;18.950;2022-11-20T21:19:21;122.70;;;50.22;;
37323;SDS011;23205;49.986;18.950;2022-11-20T21:24:22;116.22;;;45.45;;
37323;SDS011;23205;49.986;18.950;2022-11-20T21:29:24;124.35;;;49.03;;
37323;SDS011;23205;49.986;18.950;2022-11-20T21:34:25;99.95;;;42.28;;
37323;SDS011;23205;49.986;18.950;2022-11-20T21:39:26;107.15;;;43.00;;
37323;SDS011;23205;49.986;18.950;2022-11-20T21:44:29;121.70;;;44.88;;
37323;SDS011;23205;49.986;18.950;2022-11-20T21:49:30;89.65;;;40.42;;
37323;SDS011;23205;49.986;18.950;2022-11-20T21:54:31;92.25;;;36.42;;
37323;SDS011;23205;49.986;18.950;2022-11-20T21:59:34;90.28;;;37.10;;
37323;SDS011;23205;49.986;18.950;2022-11-20T22:04:36;81.55;;;33.78;;
37323;SDS011;23205;49.986;18.950;2022-11-20T22:09:38;94.82;;;36.95;;
37323;SDS011;23205;49.986;18.950;2022-11-20T22:14:39;70.22;;;29.10;;
37323;SDS011;23205;49.986;18.950;2022-11-20T22:19:40;65.00;;;27.08;;
37323;SDS011;23205;49.986;18.950;2022-11-20T22:24:41;68.68;;;25.13;;
37323;SDS011;23205;49.986;18.950;2022-11-20T22:29:42;63.35;;;25.27;;
37323;SDS011;23205;49.986;18.950;2022-11-20T22:34:43;66.97;;;28.05;;
37323;SDS011;23205;49.986;18.950;2022-11-20T22:39:44;76.45;;;30.40;;
37323;SDS011;23205;49.986;18.950;2022-11-20T22:44:45;63.47;;;26.20;;
37323;SDS011;23205;49.986;18.950;2022-11-20T22:49:47;64.50;;;27.42;;
37323;SDS011;23205;49.986;18.950;2022-11-20T22:54:48;67.82;;;24.13;;
37323;SDS011;23205;49.986;18.950;2022-11-20T22:59:49;65.10;;;24.80;;
37323;SDS011;23205;49.986;18.950;2022-11-20T23:04:50;58.33;;;22.13;;
37323;SDS011;23205;49.986;18.950;2022-11-20T23:09:51;66.78;;;24.77;;
37323;SDS011;23205;49.986;18.950;2022-11-20T23:14:52;58.10;;;22.70;;
37323;SDS011;23205;49.986;18.950;2022-11-20T23:19:53;55.47;;;23.15;;
37323;SDS011;23205;49.986;18.950;2022-11-20T23:24:54;57.75;;;21.35;;
37323;SDS011;23205;49.986;18.950;2022-11-20T23:29:55;55.88;;;21.45;;
37323;SDS011;23205;49.986;18.950;2022-11-20T23:34:58;49.35;;;20.30;;
37323;SDS011;23205;49.986;18.950;2022-11-20T23:39:59;54.08;;;22.20;;
37323;SDS011;23205;49.986;18.950;2022-11-20T23:45:00;52.15;;;21.98;;
37323;SDS011;23205;49.986;18.950;2022-11-20T23:50:01;55.83;;;20.60;;
37323;SDS011;23205;49.986;18.950;2022-11-20T23:55:02;57.80;;;22.27;;
